createdAt,value
2018-06-17T00:01:01.643Z,8.97
2018-06-17T00:05:04.974Z,9.53
2018-06-17T00:09:09.015Z,8.83
2018-06-17T00:13:12.365Z,8.63
2018-06-17T00:17:15.725Z,8.87
2018-06-17T00:21:19.055Z,9.33
2018-06-17T00:25:22.390Z,9.97
2018-06-17T00:29:25.731Z,9.97
2018-06-17T00:33:29.066Z,10.30
2018-06-17T00:37:32.431Z,9.17
2018-06-17T00:41:35.857Z,9.87
2018-06-17T00:45:39.174Z,9.40
2018-06-17T00:49:42.521Z,9.37
2018-06-17T00:53:45.830Z,10.90
2018-06-17T00:57:51.428Z,12.03
2018-06-17T01:01:54.842Z,10.40
2018-06-17T01:05:58.226Z,11.20
2018-06-17T01:10:01.633Z,11.00
2018-06-17T01:14:04.951Z,10.23
2018-06-17T01:18:08.294Z,10.73
2018-06-17T01:22:11.644Z,10.03
2018-06-17T01:26:15.004Z,10.13
2018-06-17T01:30:18.332Z,9.60
2018-06-17T01:34:21.646Z,9.53
2018-06-17T01:38:24.980Z,9.83
2018-06-17T01:42:28.359Z,9.50
2018-06-17T01:46:31.694Z,9.80
2018-06-17T01:50:35.024Z,10.53
2018-06-17T01:54:38.335Z,9.67
2018-06-17T01:58:41.696Z,10.07
2018-06-17T02:02:45.032Z,10.13
2018-06-17T02:06:53.760Z,10.10
2018-06-17T02:11:02.468Z,10.60
2018-06-17T02:15:05.824Z,10.30
2018-06-17T02:19:09.198Z,10.97
2018-06-17T02:23:13.415Z,11.13
2018-06-17T02:27:16.770Z,13.10
2018-06-17T02:31:20.144Z,13.70
2018-06-17T02:35:23.450Z,14.00
2018-06-17T02:39:26.796Z,14.87
2018-06-17T02:43:30.259Z,14.20
2018-06-17T02:47:39.041Z,15.07
2018-06-17T02:51:47.892Z,15.93
2018-06-17T02:55:51.217Z,15.80
2018-06-17T02:59:54.662Z,16.67
2018-06-17T03:03:58.106Z,16.57
2018-06-17T03:08:01.333Z,17.80
2018-06-17T03:12:04.708Z,17.53
2018-06-17T03:16:08.043Z,17.77
2018-06-17T03:20:11.505Z,17.00
2018-06-17T03:24:14.866Z,18.80
2018-06-17T03:28:23.735Z,17.93
2018-06-17T03:32:32.270Z,19.67
2018-06-17T03:36:35.602Z,19.33
2018-06-17T03:40:38.932Z,20.53
2018-06-17T03:44:42.275Z,20.17
2018-06-17T03:48:45.629Z,19.33
2018-06-17T03:52:48.963Z,20.27
2018-06-17T03:56:52.286Z,20.77
2018-06-17T04:00:55.796Z,22.03
2018-06-17T04:05:04.660Z,21.40
2018-06-17T04:09:08.750Z,20.97
2018-06-17T04:13:12.108Z,20.50
2018-06-17T04:17:15.851Z,19.87
2018-06-17T04:21:19.249Z,21.03
2018-06-17T04:25:22.693Z,19.77
2018-06-17T04:29:25.999Z,20.40
2018-06-17T04:33:29.349Z,19.67
2018-06-17T04:37:32.780Z,19.00
2018-06-17T04:41:36.128Z,20.30
2018-06-17T04:45:39.472Z,19.30
2018-06-17T04:49:42.808Z,19.97
2018-06-17T04:53:46.159Z,16.90
2018-06-17T04:57:49.541Z,17.43
2018-06-17T05:01:52.862Z,17.23
2018-06-17T05:05:56.228Z,17.70
2018-06-17T05:09:59.552Z,17.03
2018-06-17T05:14:02.887Z,16.57
2018-06-17T05:18:06.280Z,17.80
2018-06-17T05:22:09.619Z,16.03
2018-06-17T05:26:12.950Z,16.20
2018-06-17T05:30:16.302Z,15.90
2018-06-17T05:34:19.688Z,15.20
2018-06-17T05:38:23.090Z,15.13
2018-06-17T05:42:26.158Z,13.37
2018-06-17T05:46:29.492Z,13.63
2018-06-17T05:50:32.842Z,13.13
2018-06-17T05:54:36.179Z,12.93
2018-06-17T05:58:39.274Z,11.20
2018-06-17T06:02:42.616Z,9.37
2018-06-17T06:06:45.948Z,9.07
2018-06-17T06:10:49.304Z,8.70
2018-06-17T06:14:52.635Z,7.23
2018-06-17T06:18:56.008Z,7.80
2018-06-17T06:22:59.323Z,7.10
2018-06-17T06:27:02.675Z,7.20
2018-06-17T06:31:06.107Z,6.77
2018-06-17T06:35:09.431Z,6.77
2018-06-17T06:39:12.775Z,6.23
2018-06-17T06:43:16.086Z,5.93
2018-06-17T06:47:19.615Z,5.50
2018-06-17T06:51:22.697Z,5.43
2018-06-17T06:55:26.028Z,4.53
2018-06-17T06:59:29.136Z,5.03
2018-06-17T07:03:43.748Z,4.80
2018-06-17T07:07:58.324Z,4.90
2018-06-17T07:12:01.724Z,4.60
2018-06-17T07:16:16.547Z,4.80
2018-06-17T07:20:19.903Z,4.43
2018-06-17T07:24:23.368Z,4.10
2018-06-17T07:29:08.292Z,3.90
2018-06-17T07:33:11.716Z,4.33
2018-06-17T07:37:15.126Z,4.10
2018-06-17T07:41:18.483Z,3.77
2018-06-17T07:45:21.819Z,3.43
2018-06-17T07:49:38.977Z,3.73
2018-06-17T07:53:42.327Z,4.17
2018-06-17T07:57:45.652Z,3.77
2018-06-17T08:01:49.101Z,3.20
2018-06-17T08:05:52.428Z,3.97
2018-06-17T08:09:55.792Z,2.80
2018-06-17T08:13:59.131Z,3.13
2018-06-17T08:18:02.489Z,3.10
2018-06-17T08:22:05.846Z,2.50
2018-06-17T08:26:09.148Z,2.80
2018-06-17T08:30:12.491Z,2.30
2018-06-17T08:34:15.844Z,2.30
2018-06-17T08:38:19.179Z,2.40
2018-06-17T08:42:22.550Z,2.47
2018-06-17T08:46:25.887Z,2.60
2018-06-17T08:50:29.240Z,1.80
2018-06-17T08:54:32.572Z,2.00
2018-06-17T08:58:35.975Z,2.10
2018-06-17T09:02:39.375Z,2.23
2018-06-17T09:06:42.727Z,2.30
2018-06-17T09:10:46.067Z,2.40
2018-06-17T09:14:49.727Z,2.53
2018-06-17T09:18:53.123Z,2.50
2018-06-17T09:22:56.455Z,2.37
2018-06-17T09:26:59.768Z,2.30
2018-06-17T09:31:03.125Z,2.37
2018-06-17T09:35:06.484Z,2.17
2018-06-17T09:39:10.395Z,2.30
2018-06-17T09:43:13.770Z,1.93
2018-06-17T09:47:17.130Z,2.20
2018-06-17T09:51:20.570Z,1.97
2018-06-17T09:55:23.895Z,2.20
2018-06-17T09:59:27.252Z,1.83
2018-06-17T10:03:30.576Z,1.80
2018-06-17T10:07:33.934Z,2.03
2018-06-17T10:11:37.259Z,2.30
2018-06-17T10:15:41.138Z,2.10
2018-06-17T10:19:44.855Z,2.00
2018-06-17T10:23:48.188Z,2.00
2018-06-17T10:27:51.545Z,2.40
2018-06-17T10:31:54.859Z,2.10
2018-06-17T10:35:58.412Z,2.20
2018-06-17T10:40:01.950Z,2.60
2018-06-17T10:44:05.288Z,2.10
2018-06-17T10:48:08.792Z,2.50
2018-06-17T10:52:12.104Z,2.00
2018-06-17T10:56:15.462Z,1.80
2018-06-17T11:00:18.904Z,2.00
2018-06-17T11:04:22.247Z,2.10
2018-06-17T11:08:25.576Z,2.23
2018-06-17T11:12:28.888Z,2.40
2018-06-17T11:16:32.247Z,2.50
2018-06-17T11:20:35.668Z,2.30
2018-06-17T11:24:38.999Z,2.20
2018-06-17T11:28:42.318Z,2.40
2018-06-17T11:32:45.656Z,3.00
2018-06-17T11:36:49.176Z,2.20
2018-06-17T11:40:52.507Z,2.33
2018-06-17T11:44:55.841Z,2.50
2018-06-17T11:48:59.171Z,2.10
2018-06-17T11:53:02.485Z,2.53
2018-06-17T11:57:05.841Z,2.50
2018-06-17T12:01:15.667Z,2.43
2018-06-17T12:05:18.994Z,2.50
2018-06-17T12:09:22.329Z,2.60
2018-06-17T12:13:25.635Z,2.07
2018-06-17T12:17:28.975Z,2.50
2018-06-17T12:21:32.455Z,2.60
2018-06-17T12:25:35.813Z,2.50
2018-06-17T12:29:39.146Z,2.70
2018-06-17T12:33:42.454Z,2.47
2018-06-17T12:37:45.784Z,2.47
2018-06-17T12:41:49.223Z,2.53
2018-06-17T12:45:52.565Z,2.60
2018-06-17T12:49:55.985Z,2.57
2018-06-17T12:53:59.339Z,2.63
2018-06-17T12:58:02.751Z,2.40
2018-06-17T13:02:06.149Z,2.63
2018-06-17T13:06:09.567Z,2.57
2018-06-17T13:10:12.923Z,2.70
2018-06-17T13:14:16.230Z,2.53
2018-06-17T13:18:19.825Z,2.63
2018-06-17T13:22:23.263Z,2.33
2018-06-17T13:26:26.659Z,3.07
2018-06-17T13:30:29.999Z,2.50
2018-06-17T13:34:33.349Z,2.57
2018-06-17T13:38:36.676Z,2.47
2018-06-17T13:42:40.066Z,2.53
2018-06-17T13:46:43.395Z,2.43
2018-06-17T13:50:46.733Z,2.73
2018-06-17T13:54:51.985Z,2.50
2018-06-17T13:58:55.374Z,2.63
2018-06-17T14:02:58.719Z,2.47
2018-06-17T14:07:03.164Z,2.40
2018-06-17T14:11:06.310Z,2.53
2018-06-17T14:15:09.690Z,2.30
2018-06-17T14:19:13.031Z,2.57
2018-06-17T14:23:18.730Z,2.90
2018-06-17T14:27:23.298Z,2.53
2018-06-17T14:31:26.687Z,2.80
2018-06-17T14:35:30.492Z,2.70
2018-06-17T14:39:33.811Z,2.53
2018-06-17T14:43:42.445Z,3.07
2018-06-17T14:47:51.148Z,2.70
2018-06-17T14:52:00.039Z,2.23
2018-06-17T14:56:03.379Z,2.80
2018-06-17T15:00:06.742Z,2.90
2018-06-17T15:04:10.132Z,2.80
2018-06-17T15:08:13.508Z,2.60
2018-06-17T15:12:16.831Z,2.60
2018-06-17T15:16:20.188Z,1.93
2018-06-17T15:20:23.621Z,2.33
2018-06-17T15:24:33.720Z,2.60
2018-06-17T15:28:37.071Z,2.40
2018-06-17T15:32:45.895Z,2.13
2018-06-17T15:36:55.230Z,2.70
2018-06-17T15:41:03.890Z,2.50
2018-06-17T15:45:07.289Z,2.77
2018-06-17T15:49:11.851Z,2.50
2018-06-17T15:53:15.219Z,2.53
2018-06-17T15:57:18.609Z,2.70
2018-06-17T16:01:30.145Z,3.03
2018-06-17T16:05:34.467Z,3.07
2018-06-17T16:09:37.904Z,2.40
2018-06-17T16:13:46.482Z,2.60
2018-06-17T16:18:53.909Z,3.10
2018-06-17T16:22:57.320Z,2.50
2018-06-17T16:27:00.676Z,2.40
2018-06-17T16:31:04.031Z,2.37
2018-06-17T16:35:07.391Z,2.40
2018-06-17T16:39:12.291Z,2.90
2018-06-17T16:43:15.606Z,3.00
2018-06-17T16:47:18.958Z,2.93
2018-06-17T16:51:27.772Z,2.97
2018-06-17T16:55:36.407Z,3.07
2018-06-17T16:59:45.055Z,2.80
2018-06-17T17:03:48.408Z,2.80
2018-06-17T17:07:51.795Z,3.23
2018-06-17T17:11:55.220Z,3.00
2018-06-17T17:15:58.584Z,2.47
2018-06-17T17:20:01.927Z,3.00
2018-06-17T17:24:05.396Z,2.70
2018-06-17T17:28:08.789Z,2.90
2018-06-17T17:32:17.527Z,3.10
2018-06-17T17:36:26.092Z,3.00
2018-06-17T17:40:34.591Z,2.60
2018-06-17T17:44:43.255Z,3.30
2018-06-17T17:48:46.618Z,3.50
2018-06-17T17:52:50.007Z,3.60
2018-06-17T17:56:53.379Z,3.70
2018-06-17T18:00:56.734Z,3.97
2018-06-17T18:05:00.072Z,2.90
2018-06-17T18:09:04.628Z,3.40
2018-06-17T18:13:08.008Z,3.80
2018-06-17T18:17:12.805Z,6.53
2018-06-17T18:21:17.365Z,2.77
2018-06-17T18:25:26.504Z,3.20
2018-06-17T18:29:36.621Z,3.30
2018-06-17T18:33:45.703Z,2.90
2018-06-17T18:37:50.120Z,2.90
2018-06-17T18:41:54.585Z,3.23
2018-06-17T18:46:00.102Z,3.37
2018-06-17T18:50:04.572Z,3.00
2018-06-17T18:54:10.475Z,3.20
2018-06-17T18:58:14.931Z,3.50
2018-06-17T19:02:19.084Z,2.73
2018-06-17T19:06:22.831Z,3.87
2018-06-17T19:10:32.213Z,2.90
2018-06-17T19:14:41.953Z,11.00
2018-06-17T19:18:46.824Z,23.50
2018-06-17T19:22:52.104Z,4.57
2018-06-17T19:26:55.999Z,3.33
2018-06-17T19:31:00.667Z,3.70
2018-06-17T19:35:04.709Z,3.80
2018-06-17T19:39:10.565Z,3.80
2018-06-17T19:43:14.327Z,3.23
2018-06-17T19:47:18.662Z,3.93
2018-06-17T19:51:28.503Z,3.90
2018-06-17T19:55:37.899Z,3.53
2018-06-17T19:59:47.740Z,3.67
2018-06-17T20:03:52.865Z,3.83
2018-06-17T20:07:56.330Z,5.30
2018-06-17T20:11:59.684Z,4.40
2018-06-17T20:16:03.160Z,4.13
2018-06-17T20:20:06.630Z,4.20
2018-06-17T20:24:09.963Z,3.80
2018-06-17T20:28:13.268Z,4.10
2018-06-17T20:32:21.916Z,4.57
2018-06-17T20:36:30.383Z,4.17
2018-06-17T20:40:40.988Z,4.50
2018-06-17T20:44:46.058Z,4.50
2018-06-17T20:48:50.854Z,5.13
2018-06-17T20:52:55.459Z,4.63
2018-06-17T20:56:58.815Z,4.30
2018-06-17T21:01:02.157Z,4.63
2018-06-17T21:05:05.505Z,4.93
2018-06-17T21:09:10.716Z,5.27
2018-06-17T21:13:14.036Z,4.80
2018-06-17T21:17:18.528Z,4.93
2018-06-17T21:21:27.292Z,5.13
2018-06-17T21:26:37.487Z,5.40
2018-06-17T21:30:40.828Z,5.90
2018-06-17T21:34:44.142Z,5.23
2018-06-17T21:38:47.470Z,8.43
2018-06-17T21:42:50.806Z,5.20
2018-06-17T21:46:54.172Z,5.50
2018-06-17T21:50:57.505Z,5.53
2018-06-17T21:55:00.839Z,5.47
2018-06-17T21:59:04.255Z,5.17
2018-06-17T22:03:08.890Z,5.37
2018-06-17T22:07:13.490Z,6.10
2018-06-17T22:11:22.176Z,6.20
2018-06-17T22:15:30.951Z,5.07
2018-06-17T22:19:34.283Z,5.40
2018-06-17T22:23:37.630Z,5.03
2018-06-17T22:27:40.962Z,3.90
2018-06-17T22:31:44.340Z,4.20
2018-06-17T22:35:47.676Z,4.47
2018-06-17T22:39:50.991Z,4.70
2018-06-17T22:43:54.431Z,4.77
2018-06-17T22:47:57.783Z,4.00
2018-06-17T22:52:01.106Z,4.17
2018-06-17T22:56:08.668Z,4.30
2018-06-17T23:00:17.939Z,3.97
2018-06-17T23:04:26.684Z,3.80
2018-06-17T23:08:35.414Z,4.37
2018-06-17T23:12:39.204Z,4.20
2018-06-17T23:16:42.708Z,4.40
2018-06-17T23:20:46.059Z,4.60
2018-06-17T23:24:49.381Z,4.70
2018-06-17T23:28:52.696Z,5.10
2018-06-17T23:32:56.028Z,4.83
2018-06-17T23:36:59.360Z,4.60
2018-06-17T23:41:02.676Z,5.00
2018-06-17T23:45:06.008Z,5.00
2018-06-17T23:49:14.760Z,4.93
2018-06-17T23:53:23.527Z,4.97
2018-06-17T23:57:26.858Z,4.83
